Time;durP1;ratioP1;P1;durP2;ratioP2;P2;SDS_P1;SDS_P2;PMS_P1;PMS_P2;Temp;Humidity;BMP_temperature;BMP_pressure;BME280_temperature;BME280_humidity;BME280_pressure;Samples;Min_cycle;Max_cycle;Signal;HPM_P1;HPM_P2
2024/02/22 00:01:24;;;;;;;2.47;2.27;;;13.60;91.60;;;;;;4996359;28;20176;-71
2024/02/22 00:03:49;;;;;;;2.63;1.87;;;13.70;91.70;;;;;;4996634;28;20191;-70
2024/02/22 00:06:15;;;;;;;3.10;1.90;;;13.70;92.10;;;;;;5000936;28;20833;-71
2024/02/22 00:08:41;;;;;;;6.30;2.10;;;13.50;92.20;;;;;;5009595;28;20173;-71
2024/02/22 00:11:07;;;;;;;3.50;1.63;;;13.50;92.40;;;;;;5004998;28;20207;-70
2024/02/22 00:13:33;;;;;;;1.73;1.60;;;13.50;92.60;;;;;;4995907;28;20442;-70
2024/02/22 00:16:03;;;;;;;2.37;1.93;;;13.40;92.80;;;;;;4995635;28;20407;-69
2024/02/22 00:18:29;;;;;;;3.10;1.83;;;13.50;93.30;;;;;;4995929;28;20163;-70
2024/02/22 00:20:54;;;;;;;2.30;1.83;;;13.40;93.40;;;;;;4994666;28;20422;-70
2024/02/22 00:23:20;;;;;;;4.20;2.00;;;13.30;93.70;;;;;;4995943;28;20973;-71
2024/02/22 00:25:46;;;;;;;2.77;2.10;;;13.20;93.80;;;;;;4996037;28;20261;-71
2024/02/22 00:28:11;;;;;;;3.00;2.10;;;13.30;94.10;;;;;;4995878;28;20177;-71
2024/02/22 00:30:37;;;;;;;3.90;1.97;;;13.10;94.00;;;;;;4997630;28;20220;-70
2024/02/22 00:33:03;;;;;;;3.20;2.27;;;13.30;94.30;;;;;;5013896;28;20231;-70
2024/02/22 00:35:28;;;;;;;2.13;1.93;;;13.30;94.30;;;;;;4976476;28;20173;-71
2024/02/22 00:37:54;;;;;;;2.67;1.80;;;13.30;94.40;;;;;;4976509;28;20175;-70
2024/02/22 00:40:19;;;;;;;2.10;1.73;;;13.20;94.40;;;;;;4976058;28;20177;-70
2024/02/22 00:42:45;;;;;;;2.43;1.80;;;13.20;94.80;;;;;;4987116;28;20290;-71
2024/02/22 00:45:11;;;;;;;3.60;1.87;;;13.10;95.20;;;;;;4995594;28;20262;-70
2024/02/22 00:47:37;;;;;;;2.90;1.67;;;13.00;95.40;;;;;;4995392;28;20184;-70
2024/02/22 00:50:03;;;;;;;3.27;1.83;;;13.10;95.80;;;;;;4995256;28;20456;-69
2024/02/22 00:52:29;;;;;;;3.13;2.00;;;13.10;95.70;;;;;;4995276;28;20280;-70
2024/02/22 00:54:55;;;;;;;1.90;1.70;;;13.00;96.10;;;;;;4995315;28;20173;-69
2024/02/22 00:57:20;;;;;;;2.47;2.10;;;12.90;96.40;;;;;;4995744;28;20419;-70
2024/02/22 00:59:46;;;;;;;3.93;2.40;;;12.90;96.70;;;;;;4995700;28;20647;-70
2024/02/22 01:02:11;;;;;;;2.93;1.77;;;12.90;97.10;;;;;;4995262;28;20274;-70
2024/02/22 01:04:37;;;;;;;5.53;2.07;;;12.90;97.30;;;;;;4993526;28;20272;-69
2024/02/22 01:07:03;;;;;;;3.07;1.70;;;12.80;97.40;;;;;;4995062;28;20181;-69
2024/02/22 01:09:29;;;;;;;2.37;1.70;;;12.80;97.50;;;;;;4994841;28;20235;-70
2024/02/22 01:11:54;;;;;;;3.90;1.90;;;12.80;97.70;;;;;;4994806;28;20436;-70
2024/02/22 01:14:20;;;;;;;2.07;1.60;;;12.80;98.10;;;;;;4995036;28;20585;-70
2024/02/22 01:16:49;;;;;;;2.50;1.67;;;12.70;99.30;;;;;;4994967;28;20184;-70
2024/02/22 01:19:15;;;;;;;2.40;1.60;;;12.70;99.50;;;;;;4994874;28;20175;-70
2024/02/22 01:21:41;;;;;;;3.63;1.97;;;12.70;99.60;;;;;;4994618;28;20445;-70
2024/02/22 01:24:07;;;;;;;2.10;1.73;;;12.60;99.90;;;;;;4993782;28;20433;-71
2024/02/22 01:26:32;;;;;;;3.33;1.63;;;12.60;99.90;;;;;;4994471;28;20179;-70
2024/02/22 01:28:58;;;;;;;2.23;2.03;;;12.60;99.90;;;;;;4995073;28;20182;-71
2024/02/22 01:31:23;;;;;;;2.47;1.73;;;12.40;99.90;;;;;;4994423;28;20655;-70
2024/02/22 01:33:49;;;;;;;4.20;1.90;;;12.40;99.90;;;;;;4994403;28;20177;-70
2024/02/22 01:36:15;;;;;;;3.90;1.90;;;12.30;99.90;;;;;;4993152;28;20169;-70
2024/02/22 01:38:40;;;;;;;1.87;1.60;;;12.20;99.90;;;;;;4994545;28;20176;-70
2024/02/22 01:41:06;;;;;;;2.53;1.90;;;12.20;99.90;;;;;;4994443;28;20177;-70
2024/02/22 01:43:35;;;;;;;2.17;1.80;;;12.30;99.90;;;;;;4994240;28;20205;-69
2024/02/22 01:46:04;;;;;;;2.30;1.70;;;12.20;99.90;;;;;;4994263;28;20191;-70
2024/02/22 01:48:31;;;;;;;2.37;2.17;;;12.20;99.90;;;;;;4992974;28;20487;-70
2024/02/22 01:50:57;;;;;;;2.00;1.70;;;12.10;99.90;;;;;;4994100;28;20529;-70
2024/02/22 01:53:26;;;;;;;2.40;1.77;;;12.10;99.90;;;;;;4993368;28;20804;-71
2024/02/22 01:55:57;;;;;;;4.80;1.90;;;12.20;99.90;;;;;;4994352;28;20430;-69
2024/02/22 01:58:33;;;;;;;2.43;1.67;;;12.20;99.90;;;;;;4994829;28;20426;-70
2024/02/22 02:01:00;;;;;;;3.27;2.07;;;12.10;99.90;;;;;;4993082;28;20856;-69
2024/02/22 02:03:26;;;;;;;2.70;2.00;;;12.10;99.90;;;;;;4994062;28;20428;-70
2024/02/22 02:05:53;;;;;;;2.57;1.60;;;12.10;99.90;;;;;;4994070;28;20425;-69
2024/02/22 02:08:18;;;;;;;2.23;2.03;;;12.10;99.90;;;;;;4994239;28;20408;-70
2024/02/22 02:10:46;;;;;;;1.67;1.57;;;12.00;99.90;;;;;;4993859;28;20457;-69
2024/02/22 02:13:12;;;;;;;2.03;1.53;;;11.90;99.90;;;;;;4993910;28;20480;-69
2024/02/22 02:15:37;;;;;;;2.17;1.80;;;12.00;99.90;;;;;;4992632;28;20463;-70
2024/02/22 02:18:03;;;;;;;4.33;1.77;;;11.90;99.90;;;;;;4993823;28;20165;-70
2024/02/22 02:20:36;;;;;;;2.23;1.53;;;11.80;99.90;;;;;;4993478;28;20184;-71
2024/02/22 02:23:41;;;;;;;1.70;1.43;;;11.90;99.90;;;;;;4993242;28;20634;-69
2024/02/22 02:26:07;;;;;;;2.10;1.87;;;11.90;99.90;;;;;;4993901;28;20951;-69
2024/02/22 02:28:32;;;;;;;2.03;1.80;;;11.80;99.90;;;;;;4993667;28;20408;-70
2024/02/22 02:30:58;;;;;;;1.60;1.37;;;11.90;99.90;;;;;;4993871;28;20282;-70
2024/02/22 02:33:24;;;;;;;1.97;1.60;;;11.90;99.90;;;;;;4993496;28;20192;-70
2024/02/22 02:35:52;;;;;;;1.70;1.37;;;11.80;99.90;;;;;;4993669;28;20543;-70
2024/02/22 02:38:17;;;;;;;1.40;1.30;;;11.70;99.90;;;;;;4993968;28;20257;-69
2024/02/22 02:40:43;;;;;;;1.83;1.47;;;11.70;99.90;;;;;;5007574;28;20853;-69
2024/02/22 02:43:08;;;;;;;1.67;1.30;;;11.70;99.90;;;;;;4999637;28;20671;-69
2024/02/22 02:45:34;;;;;;;2.00;1.40;;;11.60;99.90;;;;;;4993578;28;20683;-69
2024/02/22 02:48:00;;;;;;;1.60;1.30;;;11.70;99.90;;;;;;4992209;28;20593;-70
2024/02/22 02:50:25;;;;;;;1.73;1.17;;;11.70;99.90;;;;;;4993701;28;20200;-70
2024/02/22 02:52:52;;;;;;;3.07;1.50;;;11.70;99.90;;;;;;4993400;28;20798;-70
2024/02/22 02:55:19;;;;;;;1.50;1.40;;;11.70;99.90;;;;;;4993506;28;20170;-70
2024/02/22 02:57:45;;;;;;;1.90;1.40;;;11.60;99.90;;;;;;4993698;28;20806;-70
2024/02/22 03:00:13;;;;;;;1.10;0.80;;;11.50;99.90;;;;;;4993427;28;20408;-70
2024/02/22 03:02:41;;;;;;;1.30;1.20;;;11.60;99.90;;;;;;4993515;28;20429;-70
2024/02/22 03:05:09;;;;;;;1.80;1.40;;;11.60;99.90;;;;;;4996321;28;20815;-69
2024/02/22 03:07:35;;;;;;;1.90;1.53;;;11.60;99.90;;;;;;4997300;28;20412;-70
2024/02/22 03:10:00;;;;;;;1.30;1.10;;;11.60;99.90;;;;;;4997287;28;20459;-69
2024/02/22 03:12:26;;;;;;;1.63;0.97;;;11.50;99.90;;;;;;4999016;28;20501;-70
2024/02/22 03:14:51;;;;;;;2.20;1.30;;;11.50;99.90;;;;;;5013702;28;20171;-70
2024/02/22 03:17:17;;;;;;;1.60;1.30;;;11.50;99.90;;;;;;5012124;28;20545;-70
2024/02/22 03:19:43;;;;;;;1.60;1.30;;;11.50;99.90;;;;;;4997076;28;20252;-70
2024/02/22 03:22:09;;;;;;;2.17;1.40;;;11.40;99.90;;;;;;4996718;28;20586;-70
2024/02/22 03:24:36;;;;;;;1.30;1.20;;;11.40;99.90;;;;;;4997002;28;20479;-69
2024/02/22 03:27:03;;;;;;;1.47;1.13;;;11.30;99.90;;;;;;4997803;28;20176;-70
2024/02/22 03:29:29;;;;;;;2.10;1.13;;;11.30;99.90;;;;;;4997611;28;20926;-70
2024/02/22 03:31:55;;;;;;;1.40;0.97;;;11.20;99.90;;;;;;4997104;28;20518;-70
2024/02/22 03:34:20;;;;;;;1.87;1.30;;;11.40;99.90;;;;;;4996655;28;20756;-69
2024/02/22 03:36:47;;;;;;;1.60;1.20;;;11.30;99.90;;;;;;4997272;28;20478;-70
2024/02/22 03:39:12;;;;;;;1.30;1.13;;;11.40;99.90;;;;;;4997015;28;20169;-69
2024/02/22 03:41:38;;;;;;;1.40;1.30;;;11.30;99.90;;;;;;4996790;28;20442;-70
2024/02/22 03:44:04;;;;;;;1.80;1.50;;;11.40;99.90;;;;;;4996468;28;20183;-69
2024/02/22 03:46:30;;;;;;;1.60;1.30;;;11.40;99.90;;;;;;4996826;28;20204;-70
2024/02/22 03:48:55;;;;;;;1.87;1.40;;;11.30;99.90;;;;;;4996481;28;20772;-70
2024/02/22 03:51:22;;;;;;;1.90;1.60;;;11.30;99.90;;;;;;4996279;28;20194;-70
2024/02/22 03:53:48;;;;;;;2.30;1.70;;;11.30;99.90;;;;;;4996591;28;20169;-69
2024/02/22 03:56:13;;;;;;;1.47;1.37;;;11.30;99.90;;;;;;4996440;28;20990;-68
2024/02/22 03:58:39;;;;;;;1.83;1.60;;;11.20;99.90;;;;;;4996327;28;20187;-70
2024/02/22 04:01:05;;;;;;;2.07;1.60;;;11.10;99.90;;;;;;4996345;28;20267;-69
2024/02/22 04:03:31;;;;;;;1.80;1.30;;;11.00;99.90;;;;;;4996053;28;20196;-70
2024/02/22 04:05:57;;;;;;;4.20;1.60;;;11.00;99.90;;;;;;4996187;28;20490;-70
2024/02/22 04:08:22;;;;;;;1.30;1.17;;;10.90;99.90;;;;;;4996368;28;20412;-69
2024/02/22 04:10:48;;;;;;;2.27;1.40;;;11.00;99.90;;;;;;4996068;28;20675;-70
2024/02/22 04:13:13;;;;;;;1.57;1.23;;;11.00;99.90;;;;;;4995817;28;20193;-70
2024/02/22 04:15:39;;;;;;;2.70;1.27;;;11.00;99.90;;;;;;4995001;28;20200;-70
2024/02/22 04:18:05;;;;;;;1.40;1.10;;;11.00;99.90;;;;;;4996020;28;20191;-69
2024/02/22 04:20:30;;;;;;;1.97;1.70;;;11.00;99.90;;;;;;4995759;28;20249;-70
2024/02/22 04:22:56;;;;;;;1.90;1.37;;;11.00;99.90;;;;;;4995640;28;20215;-70
2024/02/22 04:25:22;;;;;;;1.50;1.30;;;10.90;99.90;;;;;;4995851;28;20173;-69
2024/02/22 04:27:47;;;;;;;1.93;1.10;;;10.90;99.90;;;;;;4995796;28;20428;-69
2024/02/22 04:30:13;;;;;;;1.43;1.33;;;10.80;99.90;;;;;;4996160;28;20189;-70
2024/02/22 04:32:39;;;;;;;1.37;1.10;;;10.90;99.90;;;;;;4995516;28;20195;-70
2024/02/22 04:35:06;;;;;;;1.20;1.10;;;10.80;99.90;;;;;;4995636;28;20420;-69
2024/02/22 04:37:32;;;;;;;1.63;1.50;;;10.80;99.90;;;;;;4995831;28;20415;-70
2024/02/22 04:39:58;;;;;;;1.73;1.17;;;10.90;99.90;;;;;;5010691;28;20756;-69
2024/02/22 04:42:24;;;;;;;1.50;1.13;;;10.80;99.90;;;;;;5010673;28;20442;-69
2024/02/22 04:44:49;;;;;;;1.90;1.40;;;10.80;99.90;;;;;;4995648;28;20176;-70
2024/02/22 04:47:15;;;;;;;2.43;1.30;;;10.70;99.90;;;;;;4995468;28;20177;-70
2024/02/22 04:49:40;;;;;;;1.20;1.10;;;10.80;99.90;;;;;;4995365;28;20660;-70
2024/02/22 04:52:06;;;;;;;1.87;1.30;;;10.70;99.90;;;;;;4995196;28;20656;-69
2024/02/22 04:54:32;;;;;;;1.87;1.20;;;10.70;99.90;;;;;;4995362;28;20182;-70
2024/02/22 04:56:58;;;;;;;1.60;1.30;;;10.80;99.90;;;;;;4995587;28;20199;-69
2024/02/22 04:59:24;;;;;;;1.40;1.20;;;10.80;99.90;;;;;;4995449;28;20478;-70
2024/02/22 05:01:49;;;;;;;2.10;1.20;;;10.70;99.90;;;;;;4995066;28;20443;-69
2024/02/22 05:04:15;;;;;;;2.10;1.30;;;10.70;99.90;;;;;;4995031;28;20173;-70
2024/02/22 05:06:42;;;;;;;3.57;1.50;;;10.90;99.90;;;;;;4995460;28;20175;-69
2024/02/22 05:09:12;;;;;;;1.40;1.10;;;10.80;99.90;;;;;;4995050;28;20414;-70
2024/02/22 05:11:44;;;;;;;1.50;1.30;;;10.90;99.90;;;;;;4994741;28;20969;-69
2024/02/22 05:14:09;;;;;;;1.30;1.20;;;10.80;99.90;;;;;;4994660;28;20495;-70
2024/02/22 05:16:35;;;;;;;2.30;1.40;;;10.80;99.90;;;;;;4994836;28;20489;-70
2024/02/22 05:19:00;;;;;;;1.60;1.10;;;10.80;99.90;;;;;;4993561;28;20200;-70
2024/02/22 05:21:26;;;;;;;1.70;1.20;;;10.70;99.90;;;;;;4993407;28;20188;-70
2024/02/22 05:23:51;;;;;;;1.47;1.13;;;10.80;99.90;;;;;;5017956;23;20220;-73
2024/02/22 05:26:17;;;;;;;1.43;1.33;;;10.90;99.90;;;;;;4994303;28;20184;-71
2024/02/22 05:28:42;;;;;;;2.07;1.10;;;10.80;99.90;;;;;;4994569;28;20169;-72
2024/02/22 05:31:23;;;;;;;1.37;1.20;;;10.80;99.90;;;;;;4994294;28;20203;-72
2024/02/22 05:33:49;;;;;;;2.23;1.17;;;10.60;99.90;;;;;;4994298;28;20214;-72
2024/02/22 05:36:19;;;;;;;2.03;1.40;;;10.50;99.90;;;;;;4994897;28;20439;-73
2024/02/22 05:38:44;;;;;;;1.60;1.03;;;10.60;99.90;;;;;;4993021;28;20411;-72
2024/02/22 05:41:10;;;;;;;1.37;1.10;;;10.50;99.90;;;;;;4994453;28;20418;-72
2024/02/22 05:43:36;;;;;;;1.50;1.27;;;10.60;99.90;;;;;;4990101;28;20196;-72
2024/02/22 05:46:02;;;;;;;1.50;1.40;;;10.70;99.90;;;;;;4994049;28;20557;-72
2024/02/22 05:48:27;;;;;;;1.30;1.20;;;10.70;99.90;;;;;;4993892;28;20175;-71
2024/02/22 05:50:54;;;;;;;1.60;1.10;;;10.70;99.90;;;;;;4993883;28;20274;-71
2024/02/22 05:53:20;;;;;;;1.80;1.50;;;10.60;99.90;;;;;;4983286;28;20283;-72
2024/02/22 05:55:45;;;;;;;2.00;1.63;;;10.60;99.90;;;;;;4974842;28;20440;-72
2024/02/22 05:58:11;;;;;;;1.47;1.37;;;10.70;99.90;;;;;;4974767;28;20629;-71
2024/02/22 06:00:37;;;;;;;1.80;1.37;;;10.60;99.90;;;;;;4974314;28;20640;-72
2024/02/22 06:03:04;;;;;;;1.70;1.40;;;10.50;99.90;;;;;;4982854;28;20196;-71
2024/02/22 06:05:29;;;;;;;2.10;1.60;;;10.50;99.90;;;;;;4993957;28;20418;-72
2024/02/22 06:07:55;;;;;;;2.20;1.47;;;10.50;99.90;;;;;;4993999;28;20403;-71
2024/02/22 06:10:21;;;;;;;1.47;1.37;;;10.40;99.90;;;;;;4993870;28;20203;-71
2024/02/22 06:12:47;;;;;;;1.97;1.60;;;10.40;99.90;;;;;;4987337;28;20195;-71
2024/02/22 06:15:13;;;;;;;1.63;1.53;;;10.40;99.90;;;;;;4976684;28;20400;-72
2024/02/22 06:17:38;;;;;;;2.63;1.10;;;10.40;99.90;;;;;;4974300;28;20177;-72
2024/02/22 06:20:05;;;;;;;2.20;1.50;;;10.50;99.90;;;;;;4974035;28;20168;-71
2024/02/22 06:22:32;;;;;;;1.30;1.20;;;10.50;99.90;;;;;;4977588;28;20199;-72
2024/02/22 06:24:57;;;;;;;1.47;1.37;;;10.50;99.90;;;;;;4993253;28;20415;-72
2024/02/22 06:27:23;;;;;;;1.33;1.23;;;10.50;99.90;;;;;;4993436;28;20778;-73
2024/02/22 06:29:48;;;;;;;1.60;1.30;;;10.50;99.90;;;;;;4993538;28;20249;-72
2024/02/22 06:32:14;;;;;;;1.80;1.23;;;10.40;99.90;;;;;;4992240;28;20584;-72
2024/02/22 06:34:40;;;;;;;1.70;1.20;;;10.50;99.90;;;;;;4974453;28;20164;-72
2024/02/22 06:37:05;;;;;;;2.60;1.33;;;10.40;99.90;;;;;;4991767;28;20207;-72
2024/02/22 06:39:31;;;;;;;1.90;1.30;;;10.50;99.90;;;;;;4997686;28;20167;-72
2024/02/22 06:41:56;;;;;;;2.47;1.23;;;10.40;99.90;;;;;;5000168;28;20176;-72
2024/02/22 06:44:22;;;;;;;2.87;1.80;;;10.40;99.90;;;;;;4999909;28;20667;-72
2024/02/22 06:46:47;;;;;;;2.47;1.40;;;10.40;99.90;;;;;;5000337;28;20175;-72
2024/02/22 06:49:17;;;;;;;1.63;1.17;;;10.40;99.90;;;;;;5000141;28;20168;-72
2024/02/22 06:51:42;;;;;;;1.50;1.20;;;10.50;99.90;;;;;;4999980;28;20662;-72
2024/02/22 06:54:08;;;;;;;2.03;1.57;;;10.50;99.90;;;;;;4998752;28;20525;-72
2024/02/22 06:56:34;;;;;;;1.50;1.40;;;10.50;99.90;;;;;;4999952;28;20550;-72
2024/02/22 06:58:59;;;;;;;1.90;1.60;;;10.50;99.90;;;;;;4999762;28;20405;-72
2024/02/22 07:01:25;;;;;;;1.90;1.50;;;10.50;99.90;;;;;;4999916;28;20225;-73
2024/02/22 07:03:50;;;;;;;3.23;2.20;;;10.50;99.90;;;;;;4985606;28;20232;-72
2024/02/22 07:06:16;;;;;;;2.30;1.80;;;10.50;99.90;;;;;;4980326;28;20169;-72
2024/02/22 07:08:41;;;;;;;2.50;2.07;;;10.60;99.90;;;;;;4980173;28;20674;-72
2024/02/22 07:11:13;;;;;;;2.37;1.90;;;10.60;99.90;;;;;;4980277;28;20193;-72
2024/02/22 07:13:39;;;;;;;2.87;2.27;;;10.60;99.90;;;;;;4992589;28;20216;-72
2024/02/22 07:16:06;;;;;;;2.70;2.50;;;10.60;99.90;;;;;;4999802;28;20403;-72
2024/02/22 07:18:32;;;;;;;4.17;2.20;;;10.60;99.90;;;;;;4999783;28;20195;-71
2024/02/22 07:20:58;;;;;;;3.07;2.77;;;10.50;99.90;;;;;;4998798;28;20424;-71
2024/02/22 07:23:24;;;;;;;3.73;2.80;;;10.50;99.90;;;;;;4989214;28;20452;-73
2024/02/22 07:25:49;;;;;;;2.93;2.50;;;10.60;99.90;;;;;;4980155;28;20255;-72
2024/02/22 07:28:15;;;;;;;3.83;2.90;;;10.60;99.90;;;;;;4980124;28;20208;-73
2024/02/22 07:30:41;;;;;;;2.60;2.40;;;10.70;99.90;;;;;;4980401;28;20196;-74
2024/02/22 07:33:09;;;;;;;6.70;3.20;;;10.70;99.90;;;;;;4987397;28;20184;-73
2024/02/22 07:35:35;;;;;;;4.47;3.47;;;10.70;99.90;;;;;;4999436;28;20969;-72
2024/02/22 07:38:00;;;;;;;4.33;2.80;;;10.60;99.90;;;;;;4999488;28;20408;-72
2024/02/22 07:40:26;;;;;;;3.60;2.70;;;10.60;99.90;;;;;;4999185;28;20820;-73
2024/02/22 07:42:52;;;;;;;2.87;2.30;;;10.60;99.90;;;;;;4993798;28;20669;-74
2024/02/22 07:45:18;;;;;;;4.10;2.23;;;10.60;99.90;;;;;;4979826;28;20339;-72
2024/02/22 07:47:44;;;;;;;2.23;2.03;;;10.70;99.90;;;;;;4979635;28;20664;-72
2024/02/22 07:50:10;;;;;;;4.20;2.43;;;10.80;99.90;;;;;;4980919;28;20454;-71
2024/02/22 07:52:39;;;;;;;2.83;2.30;;;10.80;99.90;;;;;;4992902;28;20583;-70
2024/02/22 07:55:06;;;;;;;3.50;2.13;;;10.70;99.90;;;;;;4977045;28;20518;-70
2024/02/22 07:57:32;;;;;;;3.40;2.30;;;10.80;99.90;;;;;;4976200;28;20438;-72
2024/02/22 07:59:57;;;;;;;2.10;1.60;;;10.90;99.90;;;;;;4976776;28;20734;-72
2024/02/22 08:02:23;;;;;;;2.37;1.67;;;10.90;99.90;;;;;;4978361;28;20196;-73
2024/02/22 08:04:50;;;;;;;1.80;1.47;;;10.90;99.90;;;;;;4996739;28;20512;-71
2024/02/22 08:07:16;;;;;;;2.00;1.60;;;10.80;99.90;;;;;;4992829;28;20400;-72
2024/02/22 08:09:42;;;;;;;1.93;1.60;;;10.90;99.90;;;;;;4995936;28;20398;-72
2024/02/22 08:12:09;;;;;;;1.90;1.40;;;10.90;99.90;;;;;;4995771;28;20992;-72
2024/02/22 08:14:35;;;;;;;5.47;3.40;;;10.90;99.90;;;;;;4976882;28;20219;-73
2024/02/22 08:17:00;;;;;;;2.03;1.30;;;10.90;99.90;;;;;;4976337;28;20893;-73
2024/02/22 08:19:27;;;;;;;1.80;1.30;;;10.90;99.90;;;;;;4976237;28;20281;-72
2024/02/22 08:21:53;;;;;;;1.20;1.07;;;10.90;99.90;;;;;;4976345;28;20183;-73
2024/02/22 08:24:20;;;;;;;1.17;0.90;;;10.90;99.90;;;;;;4993036;28;20416;-72
2024/02/22 08:26:45;;;;;;;2.90;1.13;;;10.90;99.90;;;;;;4996375;28;20783;-73
2024/02/22 08:29:11;;;;;;;1.30;1.10;;;11.00;99.90;;;;;;4996691;28;20408;-72
2024/02/22 08:31:37;;;;;;;1.00;0.90;;;11.00;99.90;;;;;;4996642;28;20246;-73
2024/02/22 08:34:02;;;;;;;2.83;0.90;;;11.00;99.90;;;;;;4982651;28;20192;-72
2024/02/22 08:36:28;;;;;;;1.20;0.90;;;10.90;99.90;;;;;;4976261;28;20235;-72
2024/02/22 08:38:54;;;;;;;1.40;0.80;;;11.00;99.90;;;;;;4977352;28;20545;-72
2024/02/22 08:41:20;;;;;;;3.20;0.90;;;11.00;99.90;;;;;;4976244;28;20176;-73
2024/02/22 08:43:45;;;;;;;0.80;0.73;;;11.10;99.90;;;;;;4987096;28;20449;-72
2024/02/22 08:46:14;;;;;;;1.00;0.60;;;11.10;99.90;;;;;;4995403;28;20192;-71
2024/02/22 08:48:40;;;;;;;1.10;0.87;;;11.20;99.90;;;;;;4995092;28;20169;-74
2024/02/22 08:51:08;;;;;;;4.30;3.90;;;11.30;99.90;;;;;;4995028;28;20495;-72
2024/02/22 08:53:34;;;;;;;1.10;0.70;;;11.30;99.90;;;;;;4994963;28;20437;-73
2024/02/22 08:55:59;;;;;;;1.00;0.70;;;11.20;99.90;;;;;;4995066;28;20458;-72
2024/02/22 08:58:25;;;;;;;1.27;0.97;;;11.30;99.90;;;;;;4995072;28;20208;-73
2024/02/22 09:00:50;;;;;;;1.53;0.63;;;11.40;99.90;;;;;;4995077;28;20525;-72
2024/02/22 09:03:16;;;;;;;2.67;0.80;;;11.30;99.90;;;;;;4993717;28;20476;-72
2024/02/22 09:05:43;;;;;;;1.07;0.67;;;11.50;99.90;;;;;;4995261;28;20180;-71
2024/02/22 09:08:09;;;;;;;1.10;0.73;;;11.60;99.90;;;;;;4994913;28;20541;-73
2024/02/22 09:10:34;;;;;;;1.30;0.90;;;11.60;99.90;;;;;;4994580;28;20445;-72
2024/02/22 09:13:00;;;;;;;1.50;0.80;;;11.60;99.90;;;;;;4989243;28;20249;-70
2024/02/22 09:15:25;;;;;;;0.90;0.60;;;11.60;99.90;;;;;;4975201;28;20215;-71
2024/02/22 09:17:51;;;;;;;0.93;0.60;;;11.70;99.90;;;;;;4975428;28;20260;-71
2024/02/22 09:20:18;;;;;;;0.83;0.60;;;11.70;99.90;;;;;;4975523;28;20274;-72
2024/02/22 09:22:43;;;;;;;2.90;0.80;;;11.70;99.90;;;;;;4977876;28;20217;-70
2024/02/22 09:25:10;;;;;;;1.07;0.73;;;11.60;99.90;;;;;;4994520;28;20423;-72
2024/02/22 09:27:36;;;;;;;0.90;0.60;;;11.50;99.90;;;;;;4994697;28;20179;-71
2024/02/22 09:30:03;;;;;;;0.83;0.63;;;11.60;99.90;;;;;;4995089;28;20936;-72
2024/02/22 09:32:29;;;;;;;1.10;0.50;;;11.60;99.90;;;;;;4993894;28;20844;-74
2024/02/22 09:34:55;;;;;;;0.90;0.57;;;11.50;99.90;;;;;;4975323;28;20413;-75
2024/02/22 09:37:21;;;;;;;0.83;0.50;;;11.60;99.90;;;;;;4975165;28;20402;-75
2024/02/22 09:39:49;;;;;;;0.80;0.67;;;11.70;99.90;;;;;;4974797;28;20165;-75
2024/02/22 09:42:15;;;;;;;1.07;0.63;;;11.70;99.90;;;;;;4974945;28;20479;-75
2024/02/22 09:44:41;;;;;;;0.70;0.50;;;11.70;99.90;;;;;;4992738;28;20419;-74
2024/02/22 09:47:08;;;;;;;2.53;0.57;;;11.60;99.90;;;;;;4994314;28;20427;-72
2024/02/22 09:49:34;;;;;;;1.07;0.70;;;11.60;99.90;;;;;;4994299;28;20404;-72
2024/02/22 09:52:00;;;;;;;0.80;0.60;;;11.60;99.90;;;;;;4993868;28;20447;-71
2024/02/22 09:54:25;;;;;;;3.17;0.60;;;11.70;99.90;;;;;;4977981;28;20815;-72
2024/02/22 09:56:51;;;;;;;1.40;0.70;;;11.70;99.90;;;;;;4978089;28;21006;-71
2024/02/22 09:59:18;;;;;;;2.63;0.60;;;11.70;99.90;;;;;;4994059;28;20216;-69
2024/02/22 10:01:44;;;;;;;0.80;0.70;;;11.70;99.90;;;;;;4993994;28;20563;-71
2024/02/22 10:04:23;;;;;;;1.00;0.60;;;11.80;99.90;;;;;;4980075;28;20818;-71
2024/02/22 10:06:49;;;;;;;0.97;0.63;;;11.90;99.90;;;;;;4974322;28;20447;-71
2024/02/22 10:09:15;;;;;;;0.90;0.60;;;12.00;99.90;;;;;;4975369;28;20428;-70
2024/02/22 10:11:45;;;;;;;1.40;0.60;;;12.00;99.90;;;;;;4974056;28;21036;-71
2024/02/22 10:14:13;;;;;;;0.80;0.50;;;12.20;99.90;;;;;;4987035;28;20427;-71
2024/02/22 10:16:45;;;;;;;0.80;0.60;;;12.30;99.90;;;;;;4992986;28;20412;-75
2024/02/22 10:19:14;;;;;;;0.80;0.70;;;12.50;99.90;;;;;;4993841;28;20149;-73
2024/02/22 10:21:40;;;;;;;0.83;0.50;;;12.40;99.90;;;;;;4993751;28;20426;-72
2024/02/22 10:24:08;;;;;;;0.80;0.50;;;12.50;99.90;;;;;;4980422;28;20447;-71
2024/02/22 10:26:34;;;;;;;0.70;0.53;;;12.40;99.90;;;;;;4974425;28;20469;-72
2024/02/22 10:29:08;;;;;;;1.10;0.50;;;12.40;99.90;;;;;;4973999;28;20922;-72
2024/02/22 10:31:53;;;;;;;0.70;0.50;;;12.40;99.90;;;;;;4974247;28;20437;-71
2024/02/22 10:34:19;;;;;;;1.33;0.60;;;12.50;99.90;;;;;;4988491;28;20451;-73
2024/02/22 10:36:46;;;;;;;0.80;0.50;;;12.50;99.90;;;;;;4993436;28;20428;-73
2024/02/22 10:39:13;;;;;;;1.43;0.57;;;12.40;99.90;;;;;;4994195;28;20657;-72
2024/02/22 10:41:39;;;;;;;0.80;0.50;;;12.40;99.90;;;;;;4993527;28;20415;-72
2024/02/22 10:44:06;;;;;;;0.80;0.50;;;12.40;99.90;;;;;;4980602;28;20476;-71
2024/02/22 10:46:36;;;;;;;0.67;0.43;;;12.40;99.90;;;;;;4981122;28;21001;-75
2024/02/22 10:49:13;;;;;;;0.87;0.60;;;12.50;99.90;;;;;;4993655;28;20502;-73
2024/02/22 10:51:39;;;;;;;1.63;0.57;;;12.50;99.90;;;;;;4993216;28;21075;-70
2024/02/22 10:54:09;;;;;;;0.90;0.50;;;12.60;99.90;;;;;;4993327;28;20636;-71
2024/02/22 10:56:41;;;;;;;0.90;0.60;;;12.50;99.90;;;;;;4993277;28;20756;-71
2024/02/22 10:59:11;;;;;;;0.80;0.60;;;12.60;99.90;;;;;;4993414;28;20388;-73
2024/02/22 11:01:38;;;;;;;0.80;0.70;;;12.60;99.90;;;;;;4993552;28;20414;-72
2024/02/22 11:04:05;;;;;;;1.03;0.60;;;12.60;99.90;;;;;;4991808;28;20843;-72
2024/02/22 11:06:41;;;;;;;1.20;0.60;;;12.40;99.90;;;;;;4992652;28;20908;-73
2024/02/22 11:09:21;;;;;;;1.10;0.60;;;12.30;99.90;;;;;;4992760;28;20931;-73
2024/02/22 11:11:48;;;;;;;1.80;0.63;;;12.20;99.90;;;;;;4991872;28;20468;-73
2024/02/22 11:14:26;;;;;;;0.70;0.50;;;12.10;99.90;;;;;;4980011;28;20172;-73
2024/02/22 11:16:51;;;;;;;1.50;0.90;;;12.10;99.90;;;;;;4973810;28;20392;-73
2024/02/22 11:19:24;;;;;;;1.70;0.70;;;12.00;99.90;;;;;;4973804;28;20401;-73
2024/02/22 11:21:51;;;;;;;1.27;0.57;;;12.10;99.90;;;;;;4973759;28;20182;-73
2024/02/22 11:24:22;;;;;;;2.93;0.60;;;12.20;99.90;;;;;;5054906;23;20487;-71
2024/02/22 11:26:48;;;;;;;0.80;0.60;;;12.10;99.90;;;;;;4996863;28;20391;-70
2024/02/22 11:29:24;;;;;;;0.90;0.60;;;12.00;99.90;;;;;;4995864;28;20435;-71
2024/02/22 11:31:50;;;;;;;0.90;0.50;;;12.00;99.90;;;;;;4997040;28;20435;-73
2024/02/22 11:34:16;;;;;;;1.80;0.50;;;12.10;99.90;;;;;;4996564;28;20448;-72
2024/02/22 11:36:41;;;;;;;0.80;0.50;;;12.20;99.90;;;;;;4996913;28;20235;-73
2024/02/22 11:39:07;;;;;;;1.20;0.50;;;12.00;99.90;;;;;;4996791;28;20412;-73
2024/02/22 11:41:33;;;;;;;1.33;0.50;;;12.10;99.90;;;;;;4996395;28;20191;-73
2024/02/22 11:44:06;;;;;;;1.20;0.60;;;12.00;99.90;;;;;;4996351;28;20430;-72
2024/02/22 11:46:42;;;;;;;0.80;0.50;;;11.90;99.90;;;;;;4996907;28;20268;-72
2024/02/22 11:49:09;;;;;;;0.70;0.47;;;11.90;99.90;;;;;;4996372;28;20390;-71
2024/02/22 11:51:35;;;;;;;0.80;0.50;;;11.90;99.90;;;;;;4995598;28;20456;-73
2024/02/22 11:54:01;;;;;;;0.90;0.60;;;11.90;99.90;;;;;;4996245;28;20431;-71
2024/02/22 11:56:28;;;;;;;1.23;0.60;;;12.00;99.90;;;;;;4996600;28;20470;-73
2024/02/22 11:58:57;;;;;;;1.37;0.60;;;12.20;99.90;;;;;;4996723;28;20396;-73
2024/02/22 12:01:25;;;;;;;0.70;0.50;;;12.30;99.90;;;;;;4993786;28;20431;-73
2024/02/22 12:03:52;;;;;;;1.77;0.60;;;12.50;99.90;;;;;;4975535;28;20495;-73
2024/02/22 12:06:19;;;;;;;0.70;0.50;;;12.70;99.90;;;;;;4977720;28;20403;-73
2024/02/22 12:08:46;;;;;;;1.20;0.50;;;13.30;99.90;;;;;;4981647;28;20406;-71
2024/02/22 12:11:15;;;;;;;1.23;0.70;;;13.70;99.90;;;;;;4975884;28;20948;-71
2024/02/22 12:13:41;;;;;;;0.70;0.50;;;13.80;99.90;;;;;;4994242;28;20806;-72
2024/02/22 12:16:08;;;;;;;1.47;0.50;;;14.00;99.90;;;;;;4995835;28;20403;-72
2024/02/22 12:18:35;;;;;;;3.13;0.60;;;14.30;99.90;;;;;;4996244;28;20182;-72
2024/02/22 12:21:01;;;;;;;0.90;0.60;;;14.00;99.90;;;;;;4996600;28;20468;-72
2024/02/22 12:23:26;;;;;;;1.07;0.70;;;13.60;99.90;;;;;;4979595;28;20459;-72
2024/02/22 12:25:52;;;;;;;1.30;0.70;;;13.50;99.90;;;;;;4976413;28;20780;-71
2024/02/22 12:28:19;;;;;;;0.93;0.60;;;13.40;99.90;;;;;;4976413;28;20177;-71
2024/02/22 12:30:45;;;;;;;1.03;0.50;;;13.40;99.90;;;;;;4976370;28;20453;-71
2024/02/22 12:33:24;;;;;;;1.00;0.70;;;13.50;99.90;;;;;;4989602;28;20431;-71
2024/02/22 12:35:50;;;;;;;0.90;0.60;;;13.20;99.90;;;;;;4994124;28;20856;-71
2024/02/22 12:38:15;;;;;;;0.90;0.50;;;13.20;99.90;;;;;;4995225;28;20403;-71
2024/02/22 12:40:44;;;;;;;1.10;0.60;;;13.10;99.90;;;;;;4993472;28;20559;-71
2024/02/22 12:43:19;;;;;;;0.80;0.50;;;13.30;99.90;;;;;;4965037;28;20203;-72
2024/02/22 12:45:47;;;;;;;0.80;0.50;;;13.30;99.90;;;;;;4975973;28;20447;-72